Latest Weather Observations for Melbourne Airport

IDV60801

Issued at 11:34 am EDT Tuesday 21 February 2017 (issued every 30 minutes, with the page automatically refreshed every 10 minutes)

About weather observations | Map of weather stations | Latest weather observations for VIC | Other Formats
Station Details ID: 086282 Name: MELBOURNE AIRPORT Lat: -37.67 Lon: 144.83 Height: 113.4 m
Data from the previous 72 hours. | See also: Recent months at Melbourne Airport
Date/Time
EDT
Temp
°C
App
Temp
°C
Dew
Point
°C
Rel
Hum
%
Delta-T
°C
Wind Press
QNH
hPa
Press
MSL
hPa
Rain since
9am
mm
Dir  Spd
km/h
Gust
km/h
Spd
kts
Gust
kts
21/11:00am 17.3 14.8 6.6 49 5.3 ESE 9 15 5 8 1021.9 1021.5 0.0
21/10:30am 17.1 16.4 7.1 51 5.0 CALM 0 7 0 4 1022.1 1021.7 0.0
21/10:00am 15.8 14.1 8.5 62 3.7 WSW 7 11 4 6 1022.3 1021.9 0.0
21/09:30am 14.6 12.7 8.9 68 2.9 WSW 9 13 5 7 1022.1 1021.7 0.0
21/09:00am 13.7 11.7 8.5 71 2.6 NNW 9 13 5 7 1021.7 1021.3 0.0
21/08:30am 12.2 9.6 7.7 74 2.2 N 11 13 6 7 1021.5 1021.1 0.0
21/08:00am 9.8 6.3 7.3 84 1.2 N 15 19 8 10 1021.2 1020.8 0.0
21/07:30am 9.3 5.7 6.7 84 1.2 N 15 17 8 9 1020.7 1020.3 0.0
21/07:00am 7.8 4.0 6.0 88 0.8 N 15 17 8 9 1020.3 1019.9 0.0
21/06:30am 7.9 4.2 6.1 88 0.8 N 15 17 8 9 1019.8 1019.4 0.0
21/06:00am 7.8 4.4 6.0 88 0.8 N 13 15 7 8 1019.6 1019.2 0.0
21/05:30am 7.6 4.2 6.1 90 0.7 N 13 15 7 8 1019.4 1019.0 0.0
21/05:00am 8.9 6.1 6.8 87 1.0 NNW 11 15 6 8 1019.3 1018.9 0.0
21/04:30am 9.8 7.1 7.3 84 1.2 NNW 11 15 6 8 1019.3 1018.9 0.0
21/04:00am 9.8 6.3 7.3 84 1.2 WNW 15 19 8 10 1019.1 1018.7 0.0
21/03:30am 10.1 7.0 7.4 83 1.3 NW 13 17 7 9 1019.1 1018.7 0.0
21/03:00am 9.5 6.0 7.0 84 1.2 WNW 15 17 8 9 1019.0 1018.6 0.0
21/02:30am 10.6 7.5 7.3 80 1.6 WNW 13 17 7 9 1019.0 1018.6 0.0
21/02:00am 9.7 6.5 6.9 83 1.3 WNW 13 15 7 8 1019.2 1018.8 0.0
21/01:30am 9.8 6.2 6.8 81 1.4 WNW 15 17 8 9 1019.3 1018.9 0.0
21/01:00am 9.5 6.2 6.3 80 1.5 WNW 13 15 7 8 1019.4 1019.0 0.0
21/12:30am 9.7 6.4 6.3 79 1.6 WNW 13 15 7 8 1019.5 1019.1 0.0
21/12:00am 10.7 7.3 6.0 73 2.2 WNW 13 15 7 8 1019.3 1018.9 0.0
 
Date/Time
EDT
Temp
°C
App
Temp
°C
Dew
Point
°C
Rel
Hum
%
Delta-T
°C
Wind Press
QNH
hPa
Press
MSL
hPa
Rain since
9am
mm
Dir  Spd
km/h
Gust
km/h
Spd
kts
Gust
kts
20/11:30pm 11.4 8.0 5.8 68 2.6 WNW 13 15 7 8 1019.3 1018.9 0.0
20/11:00pm 11.2 7.8 6.1 71 2.4 WNW 13 13 7 7 1019.2 1018.8 0.0
20/10:30pm 12.9 9.7 6.7 66 3.0 WSW 13 17 7 9 1019.0 1018.6 0.0
20/10:00pm 13.0 12.5 9.3 78 1.9 SW 2 7 1 4 1018.6 1018.2 0.0
20/09:30pm 14.1 12.0 9.6 74 2.3 S 11 15 6 8 1018.2 1017.8 0.0
20/09:00pm 14.7 11.8 9.7 72 2.6 S 15 19 8 10 1017.6 1017.3 0.0
20/08:30pm 15.5 12.6 8.0 61 3.8 SSW 13 15 7 8 1017.0 1016.7 0.0
20/08:00pm 16.7 13.8 8.3 57 4.3 S 13 17 7 9 1016.5 1016.2 0.0
20/07:30pm 17.7 13.9 8.9 56 4.6 SSE 19 26 10 14 1016.0 1015.6 0.0
20/07:00pm 17.6 13.1 8.7 56 4.6 SSE 22 30 12 16 1015.6 1015.2 0.0
20/06:30pm 17.7 13.2 8.4 54 4.8 SSE 22 28 12 15 1015.2 1014.8 0.0
20/06:00pm 17.9 13.1 8.7 55 4.8 S 24 30 13 16 1014.9 1014.5 0.0
20/05:30pm 18.2 13.1 9.3 56 4.7 S 26 35 14 19 1014.5 1014.1 0.0
20/05:00pm 17.9 12.1 9.6 58 4.4 SSE 30 37 16 20 1014.1 1013.7 0.0
20/04:30pm 19.5 14.3 8.9 50 5.6 SSE 26 32 14 17 1013.7 1013.3 0.0
20/04:00pm 21.1 13.3 3.0 30 8.6 WSW 33 46 18 25 1013.4 1013.0 0.0
20/03:30pm 21.0 14.6 5.3 36 7.8 SSW 28 41 15 22 1013.4 1013.0 0.0
20/03:00pm 21.2 14.0 5.0 34 8.0 SW 32 43 17 23 1013.5 1013.1 0.0
20/02:30pm 20.0 12.4 4.0 34 7.7 SW 33 44 18 24 1013.5 1013.1 0.0
20/02:00pm 20.5 13.2 2.6 30 8.4 SW 30 39 16 21 1013.4 1013.0 0.0
20/01:30pm 19.1 11.7 4.9 39 6.9 SW 33 44 18 24 1013.7 1013.3 0.0
20/01:19pm 18.6 11.9 5.6 42 6.4 WSW 30 48 16 26 1013.6 1013.2 0.0
20/01:00pm 18.3 10.8 6.5 46 5.9 WSW 35 50 19 27 1013.7 1013.3 0.0
20/12:30pm 17.4 10.3 5.7 46 5.7 WSW 32 48 17 26 1013.7 1013.3 0.0
20/12:00pm 18.0 11.1 6.6 47 5.7 SW 32 44 17 24 1013.8 1013.4 0.0
20/11:30am 17.6 9.9 5.5 45 5.9 SW 35 46 19 25 1013.7 1013.3 0.0
20/11:06am 17.6 10.2 6.8 49 5.4 SW 35 54 19 29 1013.8 1013.4 0.0
20/11:00am 16.7 8.2 6.8 52 4.9 WSW 41 54 22 29 1013.9 1013.5 0.0
20/10:30am 15.7 9.0 7.3 57 4.2 WSW 32 44 17 24 1013.9 1013.5 0.0
20/10:00am 14.6 8.8 8.0 64 3.3 WSW 28 37 15 20 1013.9 1013.5 0.0
20/09:30am 13.8 8.1 8.4 70 2.7 WSW 28 35 15 19 1013.6 1013.2 0.0
20/09:00am 13.3 6.7 7.9 70 2.7 WSW 32 37 17 20 1013.3 1012.9 4.2
20/08:30am 13.1 7.7 7.9 70 2.6 WSW 26 33 14 18 1012.8 1012.4 4.2
20/08:00am 11.4 6.6 7.5 77 1.9 W 22 30 12 16 1012.5 1012.1 4.2
20/07:30am 10.9 6.6 7.8 81 1.5 W 20 26 11 14 1012.0 1011.6 4.2
20/07:00am 11.3 6.2 7.8 79 1.7 W 24 33 13 18 1011.8 1011.4 4.2
20/06:30am 11.5 6.4 7.8 78 1.8 W 24 32 13 17 1011.5 1011.1 4.2
20/06:00am 11.2 6.4 7.5 78 1.8 W 22 30 12 16 1011.2 1010.8 4.2
20/05:30am 10.8 5.7 7.5 80 1.6 W 24 32 13 17 1011.0 1010.6 4.2
20/05:00am 10.7 5.9 7.4 80 1.6 W 22 30 12 16 1010.7 1010.3 4.2
20/04:30am 10.9 6.1 7.4 79 1.7 W 22 32 12 17 1010.8 1010.4 4.2
20/04:00am 11.2 6.0 7.3 77 1.9 W 24 32 13 17 1010.7 1010.3 4.2
20/03:30am 11.3 6.0 6.9 74 2.1 W 24 32 13 17 1010.6 1010.2 4.2
20/03:00am 10.7 5.8 6.7 76 1.9 W 22 28 12 15 1010.7 1010.3 4.2
20/02:30am 10.9 5.6 6.9 76 1.9 W 24 33 13 18 1010.7 1010.3 4.2
20/02:00am 10.9 4.9 7.2 78 1.8 W 28 33 15 18 1010.8 1010.4 4.2
20/01:30am 10.2 5.3 6.8 79 1.6 W 22 30 12 16 1010.9 1010.5 4.2
20/01:00am 9.9 5.0 6.7 80 1.5 W 22 28 12 15 1010.9 1010.5 4.2
20/12:30am 9.9 4.5 6.5 79 1.6 W 24 30 13 16 1011.0 1010.6 4.2
20/12:00am 9.3 4.9 6.5 83 1.3 W 19 22 10 12 1011.1 1010.7 4.2
 
Date/Time
EDT
Temp
°C
App
Temp
°C
Dew
Point
°C
Rel
Hum
%
Delta-T
°C
Wind Press
QNH
hPa
Press
MSL
hPa
Rain since
9am
mm
Dir  Spd
km/h
Gust
km/h
Spd
kts
Gust
kts
19/11:30pm 9.2 5.1 6.4 83 1.3 W 17 20 9 11 1011.2 1010.8 4.2
19/11:00pm 9.5 5.5 6.5 81 1.4 W 17 22 9 12 1011.3 1010.9 4.2
19/10:30pm 10.2 5.6 6.6 78 1.7 W 20 26 11 14 1011.0 1010.6 4.2
19/10:00pm 10.2 5.7 6.8 79 1.6 W 20 26 11 14 1011.0 1010.6 4.2
19/09:30pm 10.6 6.7 7.3 80 1.6 W 17 26 9 14 1011.0 1010.6 4.2
19/09:00pm 10.6 6.7 7.3 80 1.6 W 17 20 9 11 1010.6 1010.2 4.2
19/08:30pm 11.0 6.5 7.0 76 1.9 W 20 26 11 14 1010.3 1009.9 4.2
19/08:00pm 12.1 7.5 6.7 69 2.6 W 20 30 11 16 1009.9 1009.5 4.2
19/07:30pm 13.6 8.3 6.8 63 3.3 SW 24 32 13 17 1009.7 1009.3 4.2
19/07:00pm 13.0 7.6 6.3 64 3.2 SW 24 32 13 17 1009.1 1008.8 4.2
19/06:30pm 12.5 6.2 7.2 70 2.6 SW 30 37 16 20 1008.9 1008.6 4.2
19/06:02pm 13.1 5.4 5.5 60 3.6 SW 35 54 19 29 1008.8 1008.5 4.0
19/06:00pm 12.4 4.4 7.3 71 2.5 SW 39 54 21 29 1008.9 1008.6 4.0
19/05:43pm 14.1 7.1 6.0 58 3.9 SW 32 46 17 25 1008.3 1007.9 4.0
19/05:30pm 15.7 10.4 6.6 54 4.5 WSW 24 35 13 19 1008.1 1007.7 4.0
19/05:00pm 14.5 11.1 9.0 69 2.8 W 17 26 9 14 1008.4 1008.0 4.0
19/04:30pm 11.9 6.5 8.1 77 1.9 WSW 26 35 14 19 1008.5 1008.1 4.0
19/04:00pm 14.1 9.9 8.1 67 3.0 WNW 20 28 11 15 1008.1 1007.7 3.6
19/03:30pm 11.7 7.7 9.1 84 1.3 WNW 20 28 11 15 1008.8 1008.5 3.6
19/03:00pm 11.4 4.6 7.5 77 1.9 WSW 33 46 18 25 1009.4 1009.0 2.8
19/02:55pm 11.4 4.2 7.5 77 1.9 W 35 50 19 27 1009.4 1009.0 2.6
19/02:49pm 13.8 7.6 6.3 60 3.6 WNW 28 50 15 27 1009.4 1009.0 2.4
19/02:30pm 15.5 9.7 6.3 54 4.5 W 26 33 14 18 1008.8 1008.5 2.2
19/02:00pm 15.1 11.0 8.6 65 3.3 W 20 28 11 15 1008.9 1008.6 2.2
19/01:30pm 13.2 8.0 8.9 75 2.2 WSW 26 35 14 19 1009.4 1009.0 2.2
19/01:00pm 11.8 8.0 9.2 84 1.3 WSW 19 24 10 13 1009.9 1009.5 2.2
19/12:54pm 11.9 7.8 8.5 80 1.7 WSW 20 26 11 14 1010.0 1009.6 2.0
19/12:30pm 11.2 5.1 9.6 90 0.8 WSW 32 46 17 25 1010.3 1009.9 1.4
19/12:26pm 11.6 7.0 9.6 87 1.0 W 24 46 13 25 1010.1 1009.7 1.0
19/12:18pm 13.3 10.5 10.0 80 1.7 W 15 26 8 14 1009.8 1009.4 0.4
19/12:00pm 14.3 9.2 7.7 64 3.3 W 24 30 13 16 1010.0 1009.6 0.0
19/11:30am 13.4 8.6 10.3 81 1.6 SW 26 39 14 21 1010.3 1009.9 0.0
19/11:09am 13.4 6.8 9.9 79 1.8 WSW 35 52 19 28 1010.3 1009.9 0.0
19/11:00am 16.9 8.9 5.9 48 5.4 W 37 52 20 28 1010.3 1009.9 0.0
19/10:30am 16.2 8.4 5.1 47 5.3 W 35 48 19 26 1010.2 1009.8 0.0
19/10:00am 15.3 6.8 5.2 51 4.8 W 39 50 21 27 1010.2 1009.8 0.0
19/09:32am 14.2 6.9 5.6 56 4.1 W 33 54 18 29 1010.3 1009.9 0.0
19/09:30am 14.1 7.1 6.0 58 3.9 W 32 46 17 25 1010.4 1010.0 0.0
19/09:05am 13.8 7.4 5.3 56 4.0 W 28 46 15 25 1010.3 1009.9 0.0
19/09:00am 14.0 8.8 5.3 55 4.1 WNW 22 30 12 16 1010.3 1009.9 0.0
19/08:30am 12.9 8.3 5.7 61 3.4 N 19 26 10 14 1010.3 1009.9 0.0
19/08:00am 11.5 6.6 5.2 65 2.9 N 20 28 11 15 1010.2 1009.8 0.0
19/07:30am 10.0 5.1 4.9 70 2.3 N 20 26 11 14 1010.2 1009.8 0.0
19/07:00am 9.9 4.9 4.8 70 2.3 NNW 20 26 11 14 1010.1 1009.7 0.0
19/06:30am 9.9 5.1 4.8 70 2.3 NNW 19 26 10 14 1010.2 1009.8 0.0
19/06:00am 9.7 4.9 4.8 71 2.2 N 19 24 10 13 1010.2 1009.8 0.0
19/05:30am 8.2 3.2 4.6 78 1.6 N 20 24 11 13 1010.5 1010.1 0.0
19/05:00am 8.5 4.0 4.4 75 1.8 NNW 17 19 9 10 1010.6 1010.2 0.0
19/04:30am 8.8 4.4 4.5 74 1.9 NNW 17 19 9 10 1010.7 1010.3 0.0
19/04:00am 8.8 4.4 4.5 74 1.9 NNW 17 19 9 10 1010.8 1010.4 0.0
19/03:30am 9.0 4.6 4.5 73 2.0 NNW 17 19 9 10 1011.1 1010.7 0.0
19/03:00am 9.5 5.1 4.6 71 2.2 NNW 17 19 9 10 1011.3 1010.9 0.0
19/02:30am 8.3 4.2 4.5 77 1.7 NNW 15 17 8 9 1011.7 1011.3 0.0
19/02:00am 8.8 5.5 4.5 74 1.9 NNW 11 15 6 8 1012.0 1011.6 0.0
19/01:30am 10.2 6.5 4.4 67 2.6 NW 13 17 7 9 1012.3 1011.9 0.0
19/01:00am 9.0 5.0 4.8 75 1.9 WNW 15 19 8 10 1012.4 1012.0 0.0
19/12:30am 10.3 7.0 4.8 69 2.5 WNW 11 15 6 8 1012.5 1012.1 0.0
19/12:00am 10.6 7.7 4.4 65 2.8 WNW 9 11 5 6 1012.5 1012.1 0.0
 
Date/Time
EDT
Temp
°C
App
Temp
°C
Dew
Point
°C
Rel
Hum
%
Delta-T
°C
Wind Press
QNH
hPa
Press
MSL
hPa
Rain since
9am
mm
Dir  Spd
km/h
Gust
km/h
Spd
kts
Gust
kts
18/11:30pm 12.1 8.8 4.4 59 3.5 W 11 17 6 9 1012.4 1012.0 0.0
18/11:00pm 12.7 10.0 5.5 61 3.4 W 9 9 5 5 1012.4 1012.0 0.0
18/10:30pm 13.3 10.5 5.2 58 3.8 WSW 9 11 5 6 1012.5 1012.1 0.0
18/10:00pm 13.8 11.0 5.1 55 4.1 WSW 9 9 5 5 1012.6 1012.2 0.0
18/09:30pm 13.3 10.3 4.1 53 4.2 SW 9 11 5 6 1012.6 1012.2 0.0
18/09:00pm 13.5 9.8 4.7 55 4.1 SSW 13 17 7 9 1012.2 1011.8 0.0
18/08:30pm 14.7 11.5 6.7 58 3.9 SSE 13 19 7 10 1012.0 1011.6 0.0
18/08:00pm 15.4 10.4 6.6 55 4.3 SSE 22 30 12 16 1011.6 1011.2 0.0
18/07:30pm 15.8 11.3 6.9 55 4.4 SSE 20 28 11 15 1011.2 1010.8 0.0
18/07:00pm 16.3 11.8 6.3 51 4.9 S 19 26 10 14 1010.9 1010.5 0.0
18/06:30pm 17.8 10.9 4.7 42 6.3 SW 30 44 16 24 1010.7 1010.3 0.0
18/06:18pm 17.9 10.9 2.1 34 7.2 SW 28 41 15 22 1010.6 1010.2 0.0
18/06:00pm 17.1 14.1 5.9 47 5.5 SE 11 19 6 10 1010.7 1010.3 0.0
18/05:30pm 16.9 12.6 5.1 45 5.7 ESE 17 26 9 14 1010.2 1009.8 0.0
18/05:00pm 17.3 11.6 3.1 38 6.6 SE 22 30 12 16 1010.3 1009.9 0.0
18/04:30pm 17.7 13.1 3.7 39 6.6 SE 17 26 9 14 1010.5 1010.1 0.0
18/04:00pm 17.6 12.6 4.7 42 6.2 SE 20 33 11 18 1010.7 1010.3 0.0
18/03:30pm 16.8 13.1 4.3 43 5.9 S 13 22 7 12 1011.1 1010.7 0.0
18/03:00pm 16.6 10.3 4.0 43 5.9 S 26 33 14 18 1011.1 1010.7 0.0
18/02:41pm 17.4 11.8 3.5 39 6.5 WSW 22 41 12 22 1011.4 1011.0 0.0
18/02:30pm 19.0 14.9 2.4 33 7.7 WSW 13 22 7 12 1011.1 1010.7 0.0
18/02:00pm 17.5 13.8 2.1 35 7.0 W 11 15 6 8 1011.1 1010.7 0.0
18/01:34pm 17.1 12.3 2.7 38 6.6 WSW 17 48 9 26 1011.1 1010.7 0.0
18/01:30pm 17.6 13.5 2.3 36 7.0 W 13 20 7 11 1011.1 1010.7 0.0
18/01:00pm 16.6 11.0 3.5 41 6.1 WSW 22 39 12 21 1011.3 1010.9 0.0
18/12:30pm 16.8 11.3 1.9 36 6.7 SSW 20 30 11 16 1011.0 1010.6 0.0
18/12:00pm 16.8 12.2 1.6 36 6.8 SW 15 28 8 15 1011.3 1010.9 0.0

Other Formats:

Comma delimited format used in spreadsheet applications
http://www.bom.gov.au/fwo/IDV60801/IDV60801.94866.axf

JavaScript Object Notation format (JSON) in row-major order
http://www.bom.gov.au/fwo/IDV60801/IDV60801.94866.json